Time;durP1;ratioP1;P1;durP2;ratioP2;P2;SDS_P1;SDS_P2;PMS_P1;PMS_P2;Temp;Humidity;BMP_temperature;BMP_pressure;BME280_temperature;BME280_humidity;BME280_pressure;Samples;Min_cycle;Max_cycle;Signal;HPM_P1;HPM_P2
2022/06/03 00:02:29;;;;;;;4.00;1.90;;;16.70;61.30;;;;;;4867890;29;20850;-72
2022/06/03 00:05:22;;;;;;;3.53;1.50;;;16.70;61.30;;;;;;4874511;29;20474;-74
2022/06/03 00:08:09;;;;;;;3.93;1.90;;;16.70;61.40;;;;;;4880475;29;20827;-74
2022/06/03 00:11:13;;;;;;;5.50;1.93;;;16.70;61.50;;;;;;4881096;29;20471;-74
2022/06/03 00:14:03;;;;;;;3.80;1.73;;;16.70;61.50;;;;;;4876555;29;20492;-75
2022/06/03 00:16:42;;;;;;;4.17;1.63;;;16.70;61.50;;;;;;4878847;29;20508;-74
2022/06/03 00:19:35;;;;;;;4.67;1.70;;;16.60;61.50;;;;;;4858644;29;20467;-74
2022/06/03 00:22:21;;;;;;;3.80;1.60;;;16.60;61.60;;;;;;4873591;29;20462;-73
2022/06/03 00:25:23;;;;;;;3.50;1.60;;;16.60;61.60;;;;;;4873589;29;20462;-74
2022/06/03 00:28:06;;;;;;;3.70;1.50;;;16.60;61.60;;;;;;4862336;29;20478;-74
2022/06/03 00:30:47;;;;;;;4.00;1.90;;;16.50;61.70;;;;;;4873384;29;20475;-75
2022/06/03 00:33:41;;;;;;;5.50;1.60;;;16.50;61.70;;;;;;4876472;29;20489;-75
2022/06/03 00:36:25;;;;;;;3.83;1.60;;;16.50;61.80;;;;;;4879548;29;20516;-72
2022/06/03 00:39:08;;;;;;;4.20;1.53;;;16.50;61.80;;;;;;4883846;29;20459;-74
2022/06/03 00:41:50;;;;;;;4.30;1.93;;;16.50;61.80;;;;;;4875416;29;20555;-75
2022/06/03 00:44:35;;;;;;;4.07;1.57;;;16.50;61.70;;;;;;4877241;29;20483;-74
2022/06/03 00:47:16;;;;;;;4.53;1.77;;;16.50;61.80;;;;;;4874051;29;20491;-72
2022/06/03 00:50:05;;;;;;;4.03;1.60;;;16.40;61.80;;;;;;4878090;29;20467;-74
2022/06/03 00:53:01;;;;;;;3.70;1.70;;;16.40;61.80;;;;;;4858319;29;20554;-74
2022/06/03 00:56:01;;;;;;;4.03;1.90;;;16.40;61.80;;;;;;4873583;29;20483;-74
2022/06/03 00:58:42;;;;;;;5.33;2.13;;;16.30;61.90;;;;;;4846691;29;20858;-72
2022/06/03 01:01:13;;;;;;;4.00;1.80;;;16.30;61.90;;;;;;4871325;29;20470;-74
2022/06/03 01:04:15;;;;;;;5.50;1.90;;;16.30;61.90;;;;;;4883744;29;20474;-72
2022/06/03 01:06:54;;;;;;;3.60;1.70;;;16.20;62.10;;;;;;4875749;29;20491;-73
2022/06/03 01:09:33;;;;;;;3.77;1.87;;;16.20;62.10;;;;;;4877765;29;20463;-73
2022/06/03 01:12:13;;;;;;;3.80;1.80;;;16.20;62.10;;;;;;4875409;29;20477;-76
2022/06/03 01:14:54;;;;;;;3.70;1.67;;;16.20;62.20;;;;;;4879473;29;20464;-74
2022/06/03 01:17:31;;;;;;;3.73;1.70;;;16.20;62.20;;;;;;4880049;29;20486;-72
2022/06/03 01:20:37;;;;;;;5.20;2.10;;;16.10;62.30;;;;;;4858366;29;20470;-72
2022/06/03 01:23:34;;;;;;;3.80;1.70;;;16.10;62.40;;;;;;4873981;29;20459;-75
2022/06/03 01:26:20;;;;;;;4.30;2.13;;;16.10;62.40;;;;;;4872424;29;20483;-72
2022/06/03 01:29:18;;;;;;;4.07;1.90;;;16.10;62.40;;;;;;4871265;29;20466;-72
2022/06/03 01:32:30;;;;;;;5.13;1.70;;;16.10;62.50;;;;;;4883278;29;20467;-72
2022/06/03 01:35:24;;;;;;;3.90;1.70;;;16.10;62.50;;;;;;4879253;29;20971;-73
2022/06/03 01:37:56;;;;;;;5.30;2.03;;;16.00;62.50;;;;;;4883260;29;21083;-73
2022/06/03 01:40:47;;;;;;;7.33;1.90;;;16.00;62.50;;;;;;4875690;29;20845;-72
2022/06/03 01:43:43;;;;;;;4.03;2.03;;;15.90;62.60;;;;;;4875930;29;20463;-74
2022/06/03 01:46:29;;;;;;;5.20;2.20;;;15.90;62.60;;;;;;4871924;29;20478;-73
2022/06/03 01:49:40;;;;;;;3.90;1.97;;;15.90;62.60;;;;;;4874934;29;20498;-74
2022/06/03 01:52:44;;;;;;;3.90;2.00;;;15.80;62.70;;;;;;4866579;29;20474;-74
2022/06/03 01:55:39;;;;;;;4.40;2.10;;;15.80;62.80;;;;;;4849215;29;20491;-73
2022/06/03 01:58:56;;;;;;;4.33;2.00;;;15.70;62.80;;;;;;4862349;29;20554;-73
2022/06/03 02:01:56;;;;;;;4.10;1.77;;;15.70;62.80;;;;;;4871554;29;20478;-74
2022/06/03 02:04:46;;;;;;;4.10;1.80;;;15.60;62.90;;;;;;4847291;29;20455;-73
2022/06/03 02:07:48;;;;;;;4.10;2.07;;;15.60;62.90;;;;;;4878389;29;20469;-73
2022/06/03 02:10:48;;;;;;;4.43;2.33;;;15.50;63.10;;;;;;4874458;29;20474;-73
2022/06/03 02:13:37;;;;;;;4.10;2.00;;;15.50;63.20;;;;;;4868617;29;20463;-72
2022/06/03 02:16:42;;;;;;;4.97;2.00;;;15.40;63.20;;;;;;4870214;29;21265;-74
2022/06/03 02:19:34;;;;;;;4.90;2.37;;;15.40;63.30;;;;;;4880032;29;20517;-73
2022/06/03 02:22:39;;;;;;;4.63;1.87;;;15.40;63.40;;;;;;4871128;29;20499;-73
2022/06/03 02:25:23;;;;;;;4.40;2.50;;;15.30;63.40;;;;;;4873320;29;20488;-73
2022/06/03 02:28:16;;;;;;;5.30;2.27;;;15.30;63.40;;;;;;4867404;29;20478;-74
2022/06/03 02:31:11;;;;;;;3.90;2.03;;;15.30;63.60;;;;;;4877193;29;20478;-72
2022/06/03 02:34:04;;;;;;;4.33;2.20;;;15.30;63.70;;;;;;4861795;29;20466;-74
2022/06/03 02:37:01;;;;;;;4.50;2.03;;;15.30;63.60;;;;;;4873720;29;20500;-73
2022/06/03 02:40:02;;;;;;;4.40;1.97;;;15.20;63.70;;;;;;4875618;29;20466;-73
2022/06/03 02:43:03;;;;;;;4.80;2.10;;;15.20;63.80;;;;;;4869515;29;20466;-74
2022/06/03 02:46:20;;;;;;;4.53;2.00;;;15.20;63.80;;;;;;4862667;29;20491;-74
2022/06/03 02:49:14;;;;;;;4.40;2.30;;;15.10;63.80;;;;;;4874345;29;20552;-73
2022/06/03 02:52:14;;;;;;;3.63;1.77;;;15.00;63.80;;;;;;4873279;29;20471;-73
2022/06/03 02:55:34;;;;;;;3.90;1.90;;;15.00;64.00;;;;;;4853523;29;20523;-72
2022/06/03 02:58:41;;;;;;;6.10;2.00;;;15.10;64.20;;;;;;4877201;29;20493;-71
2022/06/03 03:01:47;;;;;;;5.43;2.10;;;15.10;64.10;;;;;;4875386;29;20480;-72
2022/06/03 03:04:31;;;;;;;4.20;1.80;;;15.00;64.00;;;;;;4860644;29;20872;-74
2022/06/03 03:07:27;;;;;;;3.80;2.10;;;14.90;64.00;;;;;;4851693;29;20491;-74
2022/06/03 03:10:16;;;;;;;3.77;1.70;;;14.90;64.20;;;;;;4876032;29;20471;-73
2022/06/03 03:12:59;;;;;;;5.10;2.40;;;14.90;64.30;;;;;;4873910;29;20475;-73
2022/06/03 03:15:42;;;;;;;4.30;2.00;;;14.80;64.40;;;;;;4874653;29;20494;-73
2022/06/03 03:18:42;;;;;;;4.10;2.00;;;14.80;64.50;;;;;;4873464;29;20498;-73
2022/06/03 03:21:35;;;;;;;4.43;2.00;;;14.80;64.60;;;;;;4879999;29;20976;-73
2022/06/03 03:24:36;;;;;;;5.40;2.13;;;14.80;64.60;;;;;;4863916;29;20476;-73
2022/06/03 03:27:28;;;;;;;4.20;2.40;;;14.70;64.60;;;;;;4878291;29;20474;-73
2022/06/03 03:30:11;;;;;;;6.13;2.20;;;14.70;64.60;;;;;;4883404;29;20969;-73
2022/06/03 03:33:10;;;;;;;4.13;2.00;;;14.60;64.80;;;;;;4880564;29;20492;-73
2022/06/03 03:35:56;;;;;;;3.80;1.90;;;14.60;64.90;;;;;;4880379;29;20477;-73
2022/06/03 03:38:54;;;;;;;4.70;2.27;;;14.60;65.00;;;;;;4875127;29;20494;-72
2022/06/03 03:41:56;;;;;;;4.20;2.00;;;14.60;65.00;;;;;;4837183;29;20467;-73
2022/06/03 03:45:03;;;;;;;4.30;2.13;;;14.60;65.00;;;;;;4852359;29;20470;-73
2022/06/03 03:48:07;;;;;;;10.83;2.77;;;14.60;65.00;;;;;;4875288;29;20459;-73
2022/06/03 03:51:02;;;;;;;4.70;2.30;;;14.60;65.00;;;;;;4879939;29;20467;-73
2022/06/03 03:54:01;;;;;;;4.43;2.30;;;14.60;65.10;;;;;;4882253;29;20973;-73
2022/06/03 03:56:54;;;;;;;5.63;2.77;;;14.50;65.10;;;;;;4880855;29;20901;-73
2022/06/03 03:59:56;;;;;;;4.37;2.37;;;14.50;65.20;;;;;;4874076;29;20458;-72
2022/06/03 04:03:04;;;;;;;5.27;2.43;;;14.50;65.30;;;;;;4878055;29;20491;-73
2022/06/03 04:05:57;;;;;;;5.60;2.77;;;14.50;65.50;;;;;;4861537;29;20495;-74
2022/06/03 04:09:07;;;;;;;4.87;2.10;;;14.50;65.60;;;;;;4874142;29;20992;-73
2022/06/03 04:12:00;;;;;;;4.50;2.37;;;14.60;65.80;;;;;;4867148;29;20515;-73
2022/06/03 04:15:10;;;;;;;4.80;2.43;;;14.70;65.90;;;;;;4875028;29;20463;-73
2022/06/03 04:18:03;;;;;;;4.50;2.17;;;14.80;66.00;;;;;;4858293;29;20491;-73
2022/06/03 04:21:04;;;;;;;5.30;2.37;;;15.00;66.00;;;;;;4876334;29;20470;-73
2022/06/03 04:24:27;;;;;;;5.20;2.40;;;15.10;66.10;;;;;;4860310;29;20475;-73
2022/06/03 04:27:14;;;;;;;4.90;2.57;;;15.20;66.10;;;;;;4876552;29;20490;-73
2022/06/03 04:30:27;;;;;;;6.43;3.20;;;15.40;66.00;;;;;;4880056;29;20558;-73
2022/06/03 04:33:34;;;;;;;4.37;2.30;;;15.50;66.20;;;;;;4866061;29;20482;-73
2022/06/03 04:36:30;;;;;;;4.27;2.40;;;15.70;66.30;;;;;;4875108;29;20600;-73
2022/06/03 04:39:41;;;;;;;5.77;2.37;;;15.80;66.20;;;;;;4877262;29;21026;-73
2022/06/03 04:42:50;;;;;;;5.30;2.20;;;16.00;66.30;;;;;;4867822;29;20474;-72
2022/06/03 04:45:47;;;;;;;4.63;2.30;;;16.20;66.30;;;;;;4878139;29;21040;-73
2022/06/03 04:49:01;;;;;;;5.10;2.30;;;16.40;66.20;;;;;;4875794;29;20462;-73
2022/06/03 04:52:17;;;;;;;7.93;2.33;;;16.50;66.10;;;;;;4875673;29;20467;-73
2022/06/03 04:55:34;;;;;;;4.50;2.30;;;16.70;66.00;;;;;;4810308;29;20462;-73
2022/06/03 04:58:41;;;;;;;5.47;2.60;;;16.80;65.90;;;;;;4875890;29;21033;-73
2022/06/03 05:01:51;;;;;;;4.20;2.13;;;16.90;66.00;;;;;;4853815;29;20467;-73
2022/06/03 05:05:06;;;;;;;5.17;2.20;;;17.10;65.90;;;;;;4870488;29;20450;-72
2022/06/03 05:08:08;;;;;;;4.27;2.37;;;17.20;65.30;;;;;;4873354;29;20458;-73
2022/06/03 05:11:23;;;;;;;8.40;2.43;;;17.20;65.20;;;;;;4880863;29;20459;-73
2022/06/03 05:14:19;;;;;;;4.07;1.73;;;17.30;65.20;;;;;;4883359;29;20474;-73
2022/06/03 05:17:20;;;;;;;4.80;2.10;;;17.40;65.00;;;;;;4869030;29;20553;-74
2022/06/03 05:20:34;;;;;;;4.77;2.40;;;17.40;64.70;;;;;;4882544;29;20497;-74
2022/06/03 05:23:28;;;;;;;7.17;2.03;;;17.50;64.60;;;;;;4867911;29;20481;-73
2022/06/03 05:26:24;;;;;;;6.13;2.40;;;17.50;64.40;;;;;;4877951;29;20494;-73
2022/06/03 05:29:24;;;;;;;4.10;2.30;;;17.50;64.30;;;;;;4872015;29;20473;-73
2022/06/03 05:32:42;;;;;;;5.30;2.70;;;17.40;64.40;;;;;;4872423;29;20478;-73
2022/06/03 05:35:45;;;;;;;5.00;2.30;;;17.40;64.40;;;;;;4871166;29;20479;-73
2022/06/03 05:39:16;;;;;;;7.97;2.60;;;17.40;64.30;;;;;;4842656;29;20486;-73
2022/06/03 05:42:28;;;;;;;4.40;2.43;;;17.40;64.20;;;;;;4880445;29;20475;-74
2022/06/03 05:45:22;;;;;;;6.03;2.00;;;17.60;64.40;;;;;;4881917;29;20474;-73
2022/06/03 05:47:54;;;;;;;7.20;2.80;;;17.80;64.50;;;;;;4885926;29;20478;-74
2022/06/03 05:50:33;;;;;;;6.13;2.50;;;18.00;64.00;;;;;;4875292;29;20463;-74
2022/06/03 05:53:12;;;;;;;10.97;2.80;;;18.10;63.70;;;;;;4876294;29;20474;-74
2022/06/03 05:55:51;;;;;;;5.43;2.57;;;18.10;63.70;;;;;;4880663;29;20479;-72
2022/06/03 05:58:38;;;;;;;4.77;2.43;;;18.20;63.80;;;;;;4878634;29;20515;-76
2022/06/03 06:01:22;;;;;;;7.23;2.40;;;18.40;63.70;;;;;;4859563;29;20478;-74
2022/06/03 06:03:57;;;;;;;5.40;2.30;;;18.60;63.40;;;;;;4876799;29;20485;-76
2022/06/03 06:06:34;;;;;;;5.90;2.40;;;18.90;63.20;;;;;;4885489;29;20474;-76
2022/06/03 06:09:25;;;;;;;5.90;2.30;;;19.30;63.20;;;;;;4888658;29;21040;-75
2022/06/03 06:12:25;;;;;;;5.53;2.40;;;19.50;62.10;;;;;;4878414;29;20464;-75
2022/06/03 06:15:12;;;;;;;5.40;2.17;;;19.70;61.50;;;;;;4867754;29;20460;-76
2022/06/03 06:18:03;;;;;;;3.77;1.90;;;19.70;62.00;;;;;;4884885;29;20480;-76
2022/06/03 06:20:56;;;;;;;4.30;2.07;;;19.70;61.90;;;;;;4853100;29;20456;-76
2022/06/03 06:23:41;;;;;;;5.53;2.73;;;19.90;62.30;;;;;;4878088;29;20832;-75
2022/06/03 06:26:32;;;;;;;4.80;2.20;;;20.10;62.20;;;;;;4876479;29;21059;-75
2022/06/03 06:29:21;;;;;;;9.90;2.60;;;20.20;61.80;;;;;;4878675;29;20490;-76
2022/06/03 06:32:23;;;;;;;5.40;2.30;;;20.20;61.40;;;;;;4876099;29;21111;-76
2022/06/03 06:35:32;;;;;;;4.43;2.03;;;20.20;61.30;;;;;;4889919;29;20468;-76
2022/06/03 06:38:09;;;;;;;4.80;2.47;;;20.00;60.80;;;;;;4873295;29;20794;-74
2022/06/03 06:40:49;;;;;;;4.23;1.93;;;19.80;60.70;;;;;;4881458;29;20971;-76
2022/06/03 06:43:51;;;;;;;6.60;2.80;;;19.60;60.70;;;;;;4883733;29;20478;-76
2022/06/03 06:46:32;;;;;;;5.50;3.00;;;19.50;60.70;;;;;;4865454;29;20489;-75
2022/06/03 06:49:15;;;;;;;7.33;2.80;;;19.30;60.80;;;;;;4876324;29;21105;-76
2022/06/03 06:51:58;;;;;;;6.47;2.40;;;19.20;60.70;;;;;;4880004;29;20560;-76
2022/06/03 06:54:34;;;;;;;4.70;2.43;;;19.10;61.10;;;;;;4873995;29;20459;-75
2022/06/03 06:57:05;;;;;;;6.17;2.77;;;19.10;61.10;;;;;;4859367;29;20493;-75
2022/06/03 06:59:39;;;;;;;4.47;2.20;;;19.10;61.00;;;;;;4879777;29;20487;-75
2022/06/03 07:02:12;;;;;;;5.97;2.40;;;19.00;61.20;;;;;;4882650;29;20484;-75
2022/06/03 07:04:45;;;;;;;4.23;2.30;;;19.00;61.30;;;;;;4879453;29;20469;-75
2022/06/03 07:07:21;;;;;;;4.60;2.20;;;19.10;61.30;;;;;;4886214;29;20470;-75
2022/06/03 07:09:54;;;;;;;6.60;2.40;;;19.10;61.30;;;;;;4881132;29;20464;-74
2022/06/03 07:12:25;;;;;;;5.10;3.00;;;19.10;61.20;;;;;;4880567;29;20964;-76
2022/06/03 07:15:19;;;;;;;4.30;2.40;;;19.10;61.20;;;;;;4873336;29;20512;-75
2022/06/03 07:20:54;;;;;;;5.20;2.20;;;19.10;61.20;;;;;;4884490;29;20493;-74
2022/06/03 07:23:31;;;;;;;4.63;2.50;;;19.20;61.30;;;;;;4873580;29;20466;-76
2022/06/03 07:26:06;;;;;;;4.53;2.30;;;19.20;61.40;;;;;;4874111;29;20479;-76
2022/06/03 07:28:45;;;;;;;4.53;2.10;;;19.30;61.30;;;;;;4878415;29;20543;-76
2022/06/03 07:31:21;;;;;;;4.60;2.70;;;19.30;61.20;;;;;;4889055;29;21051;-76
2022/06/03 07:33:57;;;;;;;6.83;2.47;;;19.30;61.30;;;;;;4887966;29;21044;-76
2022/06/03 07:36:41;;;;;;;5.10;2.33;;;19.40;61.30;;;;;;4879553;29;20485;-76
2022/06/03 07:39:35;;;;;;;6.90;2.50;;;19.50;61.30;;;;;;4882378;29;20496;-76
2022/06/03 07:42:08;;;;;;;5.30;2.43;;;19.50;61.20;;;;;;4876306;29;21226;-75
2022/06/03 07:44:44;;;;;;;4.50;2.20;;;19.60;61.30;;;;;;4882806;29;20460;-75
2022/06/03 07:47:15;;;;;;;6.00;2.90;;;19.60;61.30;;;;;;4875072;29;20488;-75
2022/06/03 07:49:48;;;;;;;5.90;2.57;;;19.70;61.40;;;;;;4882890;29;20460;-75
2022/06/03 07:52:27;;;;;;;5.10;2.53;;;19.80;61.50;;;;;;4880087;29;20472;-75
2022/06/03 07:54:57;;;;;;;9.43;2.10;;;19.80;61.50;;;;;;4873359;29;20465;-76
2022/06/03 07:57:28;;;;;;;4.50;2.50;;;19.90;61.30;;;;;;4888388;29;20466;-76
2022/06/03 07:59:59;;;;;;;5.63;2.30;;;19.90;61.40;;;;;;4880414;29;20477;-76
2022/06/03 08:02:29;;;;;;;7.90;2.80;;;20.00;61.30;;;;;;4879690;29;20493;-76
2022/06/03 08:05:07;;;;;;;6.20;3.00;;;20.10;61.30;;;;;;4880950;29;20464;-76
2022/06/03 08:13:12;;;;;;;4.20;2.17;;;20.20;61.40;;;;;;4882842;29;20467;-75
2022/06/03 08:15:51;;;;;;;5.03;2.67;;;20.30;61.40;;;;;;4881379;29;20499;-75
2022/06/03 08:18:22;;;;;;;5.80;2.80;;;20.40;61.40;;;;;;4870669;29;20468;-75
2022/06/03 08:20:53;;;;;;;7.40;2.83;;;20.40;61.50;;;;;;4880588;29;20481;-75
2022/06/03 08:23:22;;;;;;;7.80;2.80;;;20.50;61.50;;;;;;4874507;29;20470;-75
2022/06/03 08:25:56;;;;;;;6.27;3.30;;;20.60;61.50;;;;;;4882228;29;20519;-76
2022/06/03 08:28:26;;;;;;;7.60;3.50;;;20.60;61.50;;;;;;4876807;29;21036;-75
2022/06/03 08:30:56;;;;;;;6.80;3.10;;;20.70;61.60;;;;;;4883054;29;20481;-74
2022/06/03 08:33:32;;;;;;;6.00;3.57;;;20.80;61.60;;;;;;4862401;29;20459;-75
2022/06/03 08:36:00;;;;;;;6.13;2.90;;;20.80;61.60;;;;;;4876884;29;20487;-75
2022/06/03 08:38:33;;;;;;;5.70;3.10;;;20.90;61.60;;;;;;4878604;29;21011;-75
2022/06/03 08:41:19;;;;;;;11.80;3.30;;;20.90;61.60;;;;;;4877025;29;20498;-75
2022/06/03 08:44:07;;;;;;;7.30;3.50;;;20.90;61.70;;;;;;4877224;29;20530;-76
2022/06/03 08:46:42;;;;;;;6.83;3.17;;;21.00;61.70;;;;;;4857333;29;21039;-75
2022/06/03 08:49:18;;;;;;;10.60;3.00;;;21.10;61.80;;;;;;4875304;29;20460;-76
2022/06/03 08:51:51;;;;;;;5.63;3.20;;;21.20;61.80;;;;;;4886609;29;20516;-74
2022/06/03 08:54:27;;;;;;;5.17;3.00;;;21.30;61.90;;;;;;4880767;29;20472;-76
2022/06/03 08:56:59;;;;;;;17.33;3.70;;;21.30;61.80;;;;;;4887335;29;20512;-76
2022/06/03 08:59:35;;;;;;;8.27;3.10;;;21.40;61.80;;;;;;4871903;29;20471;-75
2022/06/03 09:02:08;;;;;;;5.30;3.10;;;21.50;61.80;;;;;;4874857;29;20482;-74
2022/06/03 09:04:47;;;;;;;5.93;3.03;;;21.60;61.80;;;;;;4879378;29;21287;-75
2022/06/03 09:07:25;;;;;;;7.93;3.27;;;21.60;61.70;;;;;;4876027;29;20492;-75
2022/06/03 09:10:01;;;;;;;6.63;3.20;;;21.70;61.70;;;;;;4875904;29;21239;-75
2022/06/03 09:12:48;;;;;;;9.73;4.30;;;21.80;61.70;;;;;;4878952;29;21052;-75
2022/06/03 09:15:22;;;;;;;7.40;3.70;;;21.90;61.70;;;;;;4873664;29;20486;-75
2022/06/03 09:17:56;;;;;;;6.23;3.40;;;21.90;61.60;;;;;;4883178;29;20473;-75
2022/06/03 09:20:28;;;;;;;5.50;3.43;;;22.00;61.60;;;;;;4883413;29;20488;-75
2022/06/03 09:23:00;;;;;;;9.03;3.00;;;22.10;61.60;;;;;;4892133;29;20465;-75
2022/06/03 09:25:32;;;;;;;6.57;3.33;;;22.10;61.60;;;;;;4880835;29;20857;-75
2022/06/03 09:28:01;;;;;;;6.00;3.27;;;22.20;61.50;;;;;;4876357;29;20470;-75
2022/06/03 09:30:32;;;;;;;5.37;3.20;;;22.30;61.50;;;;;;4883449;29;20828;-75
2022/06/03 09:33:05;;;;;;;6.27;3.40;;;22.40;61.50;;;;;;4871381;29;20818;-75
2022/06/03 09:35:39;;;;;;;6.73;3.33;;;22.40;61.40;;;;;;4881705;29;20494;-77
2022/06/03 09:38:07;;;;;;;9.80;4.03;;;22.50;61.50;;;;;;4880965;29;20479;-75
2022/06/03 09:40:40;;;;;;;6.17;3.50;;;22.50;61.60;;;;;;4877025;29;20523;-75
2022/06/03 09:43:15;;;;;;;7.43;3.37;;;22.60;61.60;;;;;;4875673;29;20464;-75
2022/06/03 09:45:46;;;;;;;6.33;3.70;;;22.70;61.60;;;;;;4860749;29;20548;-76
2022/06/03 09:48:16;;;;;;;7.93;3.47;;;22.70;61.50;;;;;;4885302;29;20467;-76
2022/06/03 09:50:51;;;;;;;7.10;3.93;;;22.80;61.50;;;;;;4879283;29;20464;-75
2022/06/03 09:53:21;;;;;;;8.30;4.07;;;22.80;61.40;;;;;;4885055;29;20462;-75
2022/06/03 09:55:52;;;;;;;7.10;3.63;;;22.90;61.40;;;;;;4877665;29;20470;-74
2022/06/03 09:58:29;;;;;;;5.00;3.27;;;22.90;61.40;;;;;;4874353;29;20579;-75
2022/06/03 10:00:59;;;;;;;17.63;3.70;;;23.00;61.60;;;;;;4878661;29;20490;-76
2022/06/03 10:03:28;;;;;;;6.97;3.50;;;23.10;61.60;;;;;;4877226;29;20519;-76
2022/06/03 10:05:59;;;;;;;5.27;3.50;;;23.20;61.60;;;;;;4883423;29;20846;-76
2022/06/03 10:12:48;;;;;;;6.37;3.47;;;23.20;61.50;;;;;;4856541;29;20846;-74
2022/06/03 10:14:04;;;;;;;12.70;5.43;;;23.30;61.40;;;;;;4879105;29;20462;-75
2022/06/03 10:16:39;;;;;;;8.50;4.17;;;23.40;61.60;;;;;;4875576;29;20479;-76
2022/06/03 10:19:07;;;;;;;6.43;3.47;;;23.50;61.60;;;;;;4873714;29;20586;-77
2022/06/03 10:21:36;;;;;;;6.40;4.30;;;23.60;61.50;;;;;;4880598;29;20491;-76
2022/06/03 10:24:06;;;;;;;10.33;4.07;;;23.70;61.60;;;;;;4880181;29;20463;-76
2022/06/03 10:26:39;;;;;;;6.67;3.63;;;23.80;61.40;;;;;;4879908;29;20484;-76
2022/06/03 10:29:09;;;;;;;5.97;3.33;;;23.80;61.40;;;;;;4874196;29;20973;-76
2022/06/03 10:31:49;;;;;;;5.30;3.37;;;23.80;61.50;;;;;;4878761;29;20878;-76
2022/06/03 10:34:23;;;;;;;6.07;4.10;;;23.90;61.50;;;;;;4877565;29;20477;-76
2022/06/03 10:36:56;;;;;;;7.70;4.00;;;23.90;61.40;;;;;;4874449;29;20893;-76
2022/06/03 10:39:27;;;;;;;5.37;3.70;;;24.00;61.30;;;;;;4870174;29;20471;-76
2022/06/03 10:41:58;;;;;;;6.10;3.60;;;24.00;61.20;;;;;;4882602;29;20585;-76
2022/06/03 10:44:28;;;;;;;6.40;4.30;;;24.10;61.10;;;;;;4863106;29;20462;-76
2022/06/03 10:46:59;;;;;;;7.17;3.50;;;24.10;61.10;;;;;;4876936;29;20477;-76
2022/06/03 10:49:29;;;;;;;6.27;3.57;;;24.10;61.20;;;;;;4875537;29;20998;-76
2022/06/03 11:03:24;;;;;;;6.27;3.53;;;24.30;61.20;;;;;;4878290;29;20512;-76
2022/06/03 11:05:52;;;;;;;6.90;3.90;;;24.40;61.10;;;;;;4885243;29;20540;-76
2022/06/03 11:08:22;;;;;;;7.73;4.00;;;24.40;61.00;;;;;;4875884;29;20465;-75
2022/06/03 11:10:52;;;;;;;5.67;3.50;;;24.50;60.90;;;;;;4865325;29;20468;-75
2022/06/03 11:13:29;;;;;;;6.10;4.17;;;24.50;60.80;;;;;;4873086;29;20468;-75
2022/06/03 11:16:13;;;;;;;5.40;3.30;;;24.60;60.90;;;;;;4878417;29;20487;-73
2022/06/03 11:18:42;;;;;;;5.77;3.63;;;24.60;60.80;;;;;;4887070;29;20460;-76
2022/06/03 11:21:23;;;;;;;7.80;3.47;;;24.70;60.80;;;;;;4885341;29;20616;-76
2022/06/03 11:23:56;;;;;;;11.23;3.87;;;24.70;60.90;;;;;;4881322;29;20506;-75
2022/06/03 11:26:28;;;;;;;6.60;4.03;;;24.80;60.90;;;;;;4875190;29;20475;-74
2022/06/03 11:29:01;;;;;;;6.37;3.50;;;24.90;60.80;;;;;;4862031;29;20477;-74
2022/06/03 11:31:32;;;;;;;5.60;3.20;;;25.00;60.60;;;;;;4875918;29;20469;-75
2022/06/03 11:34:05;;;;;;;6.00;3.47;;;25.10;60.60;;;;;;4880711;29;20992;-75
2022/06/03 11:36:38;;;;;;;6.03;3.60;;;25.20;60.40;;;;;;4884089;29;20484;-77
2022/06/03 11:39:12;;;;;;;5.87;3.57;;;25.20;60.30;;;;;;4880044;29;20468;-77
2022/06/03 11:41:45;;;;;;;5.73;3.60;;;25.20;60.20;;;;;;4881805;29;20497;-77
2022/06/03 11:44:18;;;;;;;4.90;3.53;;;25.30;60.30;;;;;;4880412;29;20456;-77
2022/06/03 11:46:51;;;;;;;6.30;3.63;;;25.40;60.30;;;;;;4883025;29;20485;-76
2022/06/03 11:49:21;;;;;;;5.30;3.47;;;25.50;60.10;;;;;;4878720;29;20468;-77
2022/06/03 11:51:50;;;;;;;5.00;3.10;;;25.50;60.10;;;;;;4885310;29;20475;-77
2022/06/03 11:54:24;;;;;;;7.43;3.57;;;25.60;60.00;;;;;;4881178;29;20459;-77
2022/06/03 11:56:53;;;;;;;10.17;4.33;;;25.60;59.70;;;;;;4879989;29;20496;-77
2022/06/03 11:59:30;;;;;;;6.83;3.77;;;25.70;59.60;;;;;;4873105;29;20966;-73
2022/06/03 12:02:03;;;;;;;12.40;3.90;;;25.70;59.60;;;;;;4884323;29;20531;-74
2022/06/03 12:04:43;;;;;;;7.00;3.60;;;25.80;59.70;;;;;;4873664;29;20469;-76
2022/06/03 12:07:23;;;;;;;6.43;3.37;;;25.80;59.60;;;;;;4882417;29;20479;-77
2022/06/03 12:09:58;;;;;;;10.23;3.67;;;25.90;59.60;;;;;;4863050;29;20467;-75
2022/06/03 12:15:58;;;;;;;6.00;3.90;;;26.00;59.30;;;;;;4863265;29;20576;-75
2022/06/03 12:19:02;;;;;;;7.23;3.50;;;26.00;59.30;;;;;;4860212;29;20474;-75
2022/06/03 12:21:52;;;;;;;5.27;3.40;;;26.10;59.10;;;;;;4871312;29;20513;-76
2022/06/03 12:24:44;;;;;;;5.27;3.20;;;26.10;59.00;;;;;;4872735;29;20472;-76
2022/06/03 12:27:29;;;;;;;7.37;3.63;;;26.10;58.90;;;;;;4873096;29;21032;-78
2022/06/03 12:30:21;;;;;;;7.90;3.07;;;26.10;58.80;;;;;;4878856;29;20482;-75
2022/06/03 12:32:53;;;;;;;6.27;3.30;;;26.10;58.90;;;;;;4878644;29;20464;-76
2022/06/03 12:35:55;;;;;;;5.20;3.40;;;26.20;58.90;;;;;;4881911;29;20476;-76
2022/06/03 12:38:51;;;;;;;6.93;3.27;;;26.20;58.90;;;;;;4871683;29;21080;-74
2022/06/03 12:41:59;;;;;;;5.30;3.50;;;26.30;58.80;;;;;;4861522;29;20977;-75
2022/06/03 12:44:47;;;;;;;5.80;3.07;;;26.30;58.70;;;;;;4872591;29;20460;-75
2022/06/03 12:47:50;;;;;;;6.17;3.30;;;26.30;58.70;;;;;;4872717;29;20493;-75
2022/06/03 12:50:31;;;;;;;6.73;3.40;;;26.40;58.50;;;;;;4878993;29;20984;-77
2022/06/03 12:53:18;;;;;;;5.23;2.73;;;26.40;58.30;;;;;;4877356;29;20471;-75
2022/06/03 12:55:54;;;;;;;5.23;3.10;;;26.40;58.30;;;;;;4876449;29;20478;-74
2022/06/03 12:58:47;;;;;;;6.83;3.40;;;26.50;58.30;;;;;;4864040;29;21056;-76
2022/06/03 13:01:33;;;;;;;6.07;3.57;;;26.50;58.20;;;;;;4881905;29;20576;-74
2022/06/03 13:04:48;;;;;;;5.40;2.93;;;26.50;58.10;;;;;;4875036;29;20456;-74
2022/06/03 13:07:39;;;;;;;6.33;3.57;;;26.60;58.00;;;;;;4882027;29;20524;-74
2022/06/03 13:10:48;;;;;;;7.73;3.20;;;26.70;57.90;;;;;;4883315;29;20469;-75
2022/06/03 13:13:37;;;;;;;6.73;3.50;;;26.70;57.80;;;;;;4872233;29;21108;-75
2022/06/03 13:16:25;;;;;;;5.33;3.30;;;26.60;57.90;;;;;;4871493;29;20485;-74
2022/06/03 13:18:57;;;;;;;6.87;3.70;;;26.60;58.00;;;;;;4874393;29;20494;-74
2022/06/03 13:21:27;;;;;;;9.00;3.87;;;26.70;58.00;;;;;;4872885;29;20465;-74
2022/06/03 13:23:59;;;;;;;9.40;3.43;;;26.70;57.90;;;;;;4870685;29;20499;-75
2022/06/03 13:26:49;;;;;;;8.00;4.57;;;26.80;57.90;;;;;;4872303;29;21014;-76
2022/06/03 13:29:51;;;;;;;5.80;3.60;;;26.80;57.90;;;;;;4884393;29;20531;-75
2022/06/03 13:32:21;;;;;;;7.10;3.80;;;26.80;57.80;;;;;;4881859;29;20480;-76
2022/06/03 13:35:06;;;;;;;6.23;3.10;;;26.70;57.80;;;;;;4872051;29;20559;-76
2022/06/03 13:37:45;;;;;;;5.50;3.53;;;26.70;58.00;;;;;;4884331;29;20546;-76
2022/06/03 13:40:30;;;;;;;5.50;3.47;;;26.80;58.00;;;;;;4872008;29;20506;-76
2022/06/03 13:43:22;;;;;;;6.40;3.90;;;26.70;58.00;;;;;;4880990;29;20499;-77
2022/06/03 13:46:10;;;;;;;6.00;3.73;;;26.70;58.10;;;;;;4876842;29;20488;-75
2022/06/03 13:48:51;;;;;;;7.53;3.80;;;26.70;58.10;;;;;;4880306;29;20455;-75
2022/06/03 13:51:50;;;;;;;6.90;3.50;;;26.70;58.10;;;;;;4874438;29;20454;-76
2022/06/03 13:54:22;;;;;;;6.80;3.87;;;26.70;58.20;;;;;;4873389;29;20466;-76
2022/06/03 13:56:56;;;;;;;7.17;3.90;;;26.70;58.30;;;;;;4880038;29;20478;-75
2022/06/03 13:59:26;;;;;;;6.10;4.10;;;26.60;58.40;;;;;;4870689;29;20477;-75
2022/06/03 14:01:55;;;;;;;9.63;3.80;;;26.60;58.50;;;;;;4881604;29;20491;-75
2022/06/03 14:04:32;;;;;;;5.93;3.60;;;26.60;58.60;;;;;;4870463;29;20456;-75
2022/06/03 14:07:04;;;;;;;6.93;3.93;;;26.50;58.90;;;;;;4876189;29;20474;-75
2022/06/03 14:09:36;;;;;;;12.60;3.97;;;26.40;59.10;;;;;;4874792;29;20482;-75
2022/06/03 14:12:26;;;;;;;6.73;4.10;;;26.40;59.10;;;;;;4867911;29;20456;-76
2022/06/03 14:15:02;;;;;;;8.87;3.77;;;26.40;59.20;;;;;;4876600;29;20938;-77
2022/06/03 14:17:33;;;;;;;5.87;3.40;;;26.30;59.20;;;;;;4881818;29;21005;-76
2022/06/03 14:20:11;;;;;;;5.37;3.27;;;26.40;59.20;;;;;;4880050;29;20558;-76
2022/06/03 14:22:44;;;;;;;6.40;3.50;;;26.40;59.40;;;;;;4885672;29;20481;-76
2022/06/03 14:25:20;;;;;;;8.37;4.00;;;26.30;59.40;;;;;;4882823;29;20458;-77
2022/06/03 14:27:59;;;;;;;6.77;4.20;;;26.30;59.50;;;;;;4889390;29;20469;-76
2022/06/03 14:30:39;;;;;;;7.97;3.37;;;26.20;59.60;;;;;;4880256;29;20468;-77
2022/06/03 14:33:15;;;;;;;6.83;4.27;;;26.20;59.70;;;;;;4882765;29;20455;-78
2022/06/03 14:35:48;;;;;;;5.27;3.30;;;26.10;60.00;;;;;;4887936;29;20531;-77
2022/06/03 14:38:24;;;;;;;5.90;3.90;;;26.10;60.10;;;;;;4882761;29;20467;-76
2022/06/03 14:40:54;;;;;;;5.43;3.63;;;26.10;60.10;;;;;;4883894;29;20472;-75
2022/06/03 14:43:26;;;;;;;7.30;3.80;;;26.00;60.20;;;;;;4878509;29;20483;-77
2022/06/03 14:45:58;;;;;;;9.73;4.20;;;26.00;60.30;;;;;;4873585;29;20498;-77